createdAt,value
2018-08-17T00:01:07.840Z,17.30
2018-08-17T00:04:27.681Z,17.20
2018-08-17T00:07:33.172Z,17.10
2018-08-17T00:10:43.371Z,17.00
2018-08-17T00:13:47.620Z,17.00
2018-08-17T00:16:52.104Z,16.90
2018-08-17T00:19:56.545Z,16.90
2018-08-17T00:23:00.673Z,16.80
2018-08-17T00:26:05.206Z,16.80
2018-08-17T00:29:11.003Z,16.70
2018-08-17T00:32:15.419Z,16.70
2018-08-17T00:35:20.000Z,16.60
2018-08-17T00:38:24.583Z,16.50
2018-08-17T00:41:28.938Z,16.50
2018-08-17T00:44:34.523Z,16.70
2018-08-17T00:47:39.332Z,16.50
2018-08-17T00:50:44.814Z,16.50
2018-08-17T00:53:49.101Z,16.50
2018-08-17T00:56:53.517Z,16.40
2018-08-17T00:59:57.748Z,16.30
2018-08-17T01:03:02.304Z,16.40
2018-08-17T01:06:07.679Z,16.30
2018-08-17T01:09:12.282Z,16.20
2018-08-17T01:12:16.782Z,16.10
2018-08-17T01:15:21.406Z,16.00
2018-08-17T01:18:25.666Z,16.20
2018-08-17T01:21:30.656Z,16.20
2018-08-17T01:24:35.147Z,16.10
2018-08-17T01:27:40.541Z,16.10
2018-08-17T01:30:45.052Z,16.00
2018-08-17T01:33:49.473Z,16.10
2018-08-17T01:36:53.960Z,16.10
2018-08-17T01:39:58.177Z,16.10
2018-08-17T01:43:02.525Z,16.00
2018-08-17T01:46:07.042Z,16.00
2018-08-17T01:49:11.584Z,15.90
2018-08-17T01:52:17.163Z,16.00
2018-08-17T01:55:21.838Z,15.80
2018-08-17T01:58:26.258Z,15.80
2018-08-17T02:01:31.043Z,15.80
2018-08-17T02:04:35.475Z,15.90
2018-08-17T02:07:40.110Z,15.70
2018-08-17T02:10:44.334Z,15.70
2018-08-17T02:13:49.066Z,16.00
2018-08-17T02:16:53.490Z,16.00
2018-08-17T02:19:57.986Z,15.70
2018-08-17T02:23:02.714Z,15.50
2018-08-17T02:26:07.205Z,15.40
2018-08-17T02:29:11.595Z,15.50
2018-08-17T02:32:16.192Z,15.70
2018-08-17T02:35:21.176Z,15.70
2018-08-17T02:38:25.696Z,15.70
2018-08-17T02:41:30.051Z,15.60
2018-08-17T02:44:34.474Z,15.80
2018-08-17T02:47:38.793Z,15.50
2018-08-17T02:50:43.025Z,15.40
2018-08-17T02:53:47.751Z,15.40
2018-08-17T02:56:51.963Z,15.50
2018-08-17T02:59:56.669Z,15.50
2018-08-17T03:03:00.975Z,15.50
2018-08-17T03:06:05.646Z,15.30
2018-08-17T03:09:11.387Z,15.20
2018-08-17T03:12:15.726Z,15.10
2018-08-17T03:15:19.996Z,15.20
2018-08-17T03:21:55.205Z,15.30
2018-08-17T03:24:59.906Z,15.30
2018-08-17T03:28:04.300Z,15.10
2018-08-17T03:31:09.117Z,15.10
2018-08-17T03:34:13.755Z,15.10
2018-08-17T03:37:18.600Z,15.20
2018-08-17T03:40:23.049Z,15.00
2018-08-17T03:43:27.488Z,15.10
2018-08-17T03:46:31.739Z,15.20
2018-08-17T03:49:36.384Z,15.10
2018-08-17T03:52:41.372Z,14.90
2018-08-17T03:55:45.746Z,14.80
2018-08-17T03:58:51.073Z,15.10
2018-08-17T04:01:55.592Z,14.90
2018-08-17T04:04:59.770Z,15.10
2018-08-17T04:08:04.466Z,15.10
2018-08-17T04:11:09.299Z,15.00
2018-08-17T04:14:13.620Z,14.90
2018-08-17T04:17:17.932Z,14.90
2018-08-17T04:20:22.191Z,15.00
2018-08-17T04:23:26.564Z,15.00
2018-08-17T04:26:31.316Z,14.80
2018-08-17T04:29:36.138Z,14.90
2018-08-17T04:32:40.295Z,14.90
2018-08-17T04:35:44.579Z,14.90
2018-08-17T04:38:49.744Z,14.90
2018-08-17T04:41:54.030Z,14.80
2018-08-17T04:44:58.558Z,14.90
2018-08-17T04:48:03.031Z,14.80
2018-08-17T04:51:07.688Z,14.80
2018-08-17T04:54:12.342Z,15.00
2018-08-17T04:57:16.725Z,15.20
2018-08-17T05:00:21.555Z,15.30
2018-08-17T05:03:26.161Z,15.50
2018-08-17T05:06:30.659Z,15.60
2018-08-17T05:09:35.130Z,15.70
2018-08-17T05:12:39.465Z,15.90
2018-08-17T05:15:44.394Z,16.10
2018-08-17T05:18:48.644Z,16.40
2018-08-17T05:21:52.891Z,16.40
2018-08-17T05:24:57.614Z,16.50
2018-08-17T05:28:03.017Z,16.50
2018-08-17T05:31:07.504Z,16.50
2018-08-17T05:34:12.250Z,16.60
2018-08-17T05:37:16.556Z,16.90
2018-08-17T05:40:21.108Z,17.20
2018-08-17T05:43:25.531Z,17.30
2018-08-17T05:46:30.189Z,17.20
2018-08-17T05:49:36.932Z,17.50
2018-08-17T05:52:41.573Z,17.50
2018-08-17T05:55:46.477Z,17.70
2018-08-17T05:58:51.088Z,17.80
2018-08-17T06:01:56.302Z,18.10
2018-08-17T06:05:00.707Z,18.20
2018-08-17T06:08:05.306Z,18.30
2018-08-17T06:11:11.880Z,18.50
2018-08-17T06:14:16.085Z,18.60
2018-08-17T06:17:20.928Z,18.90
2018-08-17T06:20:25.456Z,19.10
2018-08-17T06:23:29.803Z,19.10
2018-08-17T06:26:34.144Z,19.40
2018-08-17T06:29:38.535Z,19.60
2018-08-17T06:32:43.374Z,19.80
2018-08-17T06:35:47.634Z,20.00
2018-08-17T06:38:52.107Z,20.40
2018-08-17T06:41:57.008Z,21.50
2018-08-17T06:45:02.122Z,23.00
2018-08-17T06:48:07.169Z,24.50
2018-08-17T06:51:11.673Z,25.90
2018-08-17T06:54:16.027Z,26.80
2018-08-17T06:57:20.639Z,25.40
2018-08-17T07:00:25.620Z,27.10
2018-08-17T07:03:33.152Z,28.50
2018-08-17T07:06:40.408Z,29.30
2018-08-17T07:09:45.101Z,29.50
2018-08-17T07:12:49.859Z,30.10
2018-08-17T07:15:54.426Z,29.60
2018-08-17T07:18:58.733Z,28.90
2018-08-17T07:22:03.608Z,28.80
2018-08-17T07:25:09.317Z,28.90
2018-08-17T07:28:13.771Z,29.50
2018-08-17T07:31:18.225Z,30.40
2018-08-17T07:34:22.678Z,30.70
2018-08-17T07:37:27.157Z,31.40
2018-08-17T07:40:31.593Z,31.50
2018-08-17T07:43:37.403Z,31.10
2018-08-17T07:46:41.772Z,31.90
2018-08-17T07:49:46.338Z,33.00
2018-08-17T07:52:51.349Z,34.00
2018-08-17T07:55:56.004Z,34.30
2018-08-17T07:59:00.729Z,34.20
2018-08-17T08:02:11.129Z,34.10
2018-08-17T08:05:15.763Z,34.80
2018-08-17T08:08:20.376Z,34.00
2018-08-17T08:11:24.983Z,33.80
2018-08-17T08:14:29.471Z,32.60
2018-08-17T08:17:34.308Z,32.10
2018-08-17T08:20:42.148Z,32.90
2018-08-17T08:23:46.835Z,32.50
2018-08-17T08:26:51.568Z,30.40
2018-08-17T08:29:55.844Z,29.60
2018-08-17T08:33:00.303Z,30.80
2018-08-17T08:36:05.425Z,31.60
2018-08-17T08:39:14.230Z,32.20
2018-08-17T08:42:18.597Z,31.10
2018-08-17T08:45:23.231Z,30.30
2018-08-17T08:48:27.822Z,30.60
2018-08-17T08:51:32.170Z,31.20
2018-08-17T08:54:36.655Z,31.40
2018-08-17T08:57:41.101Z,31.50
2018-08-17T09:00:45.792Z,30.70
2018-08-17T09:03:50.388Z,31.20
2018-08-17T09:06:54.790Z,30.70
2018-08-17T09:09:59.488Z,30.10
2018-08-17T09:13:03.894Z,30.50
2018-08-17T09:16:08.485Z,31.00
2018-08-17T09:19:12.746Z,30.20
2018-08-17T09:22:17.181Z,28.50
2018-08-17T09:25:21.643Z,27.90
2018-08-17T09:28:25.984Z,28.80
2018-08-17T09:31:30.512Z,30.20
2018-08-17T09:34:35.253Z,30.10
2018-08-17T09:37:39.602Z,30.80
2018-08-17T09:40:44.092Z,31.60
2018-08-17T09:43:48.841Z,31.80
2018-08-17T09:46:53.524Z,32.80
2018-08-17T09:49:57.924Z,32.90
2018-08-17T09:53:02.264Z,32.30
2018-08-17T09:56:07.221Z,32.30
2018-08-17T09:59:11.790Z,32.10
2018-08-17T10:02:21.539Z,32.10
2018-08-17T10:05:31.238Z,32.40
2018-08-17T10:08:40.852Z,33.20
2018-08-17T10:11:45.729Z,32.50
2018-08-17T10:14:50.440Z,32.30
2018-08-17T10:17:55.123Z,32.40
2018-08-17T10:20:59.491Z,32.70
2018-08-17T10:24:04.386Z,32.60
2018-08-17T10:27:08.921Z,32.30
2018-08-17T10:30:13.388Z,32.30
2018-08-17T10:33:17.764Z,31.40
2018-08-17T10:36:22.270Z,31.60
2018-08-17T10:39:26.739Z,31.00
2018-08-17T10:42:31.127Z,31.60
2018-08-17T10:45:35.925Z,31.50
2018-08-17T10:48:40.409Z,30.90
2018-08-17T10:51:44.684Z,31.00
2018-08-17T10:54:49.068Z,31.20
2018-08-17T10:57:53.640Z,31.20
2018-08-17T11:00:57.966Z,31.90
2018-08-17T11:04:02.367Z,31.70
2018-08-17T11:07:06.680Z,30.70
2018-08-17T11:10:11.731Z,30.50
2018-08-17T11:13:16.947Z,31.20
2018-08-17T11:16:21.324Z,30.60
2018-08-17T11:19:25.607Z,30.30
2018-08-17T11:22:30.260Z,30.50
2018-08-17T11:25:35.508Z,30.50
2018-08-17T11:28:39.800Z,30.40
2018-08-17T11:31:44.048Z,30.70
2018-08-17T11:34:52.971Z,31.20
2018-08-17T11:37:57.374Z,30.90
2018-08-17T11:41:02.017Z,31.50
2018-08-17T11:44:11.135Z,31.90
2018-08-17T11:47:15.566Z,31.10
2018-08-17T11:50:21.651Z,31.10
2018-08-17T11:53:26.136Z,31.30
2018-08-17T11:56:30.506Z,30.70
2018-08-17T11:59:34.821Z,29.90
2018-08-17T12:02:39.288Z,29.90
2018-08-17T12:05:43.772Z,29.90
2018-08-17T12:08:48.488Z,29.50
2018-08-17T12:11:53.542Z,29.00
2018-08-17T12:14:57.968Z,28.50
2018-08-17T12:18:02.390Z,28.90
2018-08-17T12:21:06.624Z,29.00
2018-08-17T12:24:11.090Z,29.10
2018-08-17T12:27:15.857Z,29.20
2018-08-17T12:30:20.388Z,29.00
2018-08-17T12:33:24.770Z,28.90
2018-08-17T12:36:28.964Z,28.60
2018-08-17T12:39:33.364Z,28.70
2018-08-17T12:42:38.695Z,28.80
2018-08-17T12:45:43.052Z,28.50
2018-08-17T12:48:47.197Z,28.40
2018-08-17T12:51:51.414Z,28.40
2018-08-17T12:54:55.808Z,28.60
2018-08-17T12:58:00.063Z,29.00
2018-08-17T13:01:05.941Z,28.90
2018-08-17T13:04:10.462Z,29.00
2018-08-17T13:07:14.696Z,28.60
2018-08-17T13:10:19.180Z,28.60
2018-08-17T13:13:23.371Z,29.00
2018-08-17T13:16:27.589Z,29.20
2018-08-17T13:19:31.803Z,29.00
2018-08-17T13:22:36.478Z,29.00
2018-08-17T13:25:41.096Z,29.20
2018-08-17T13:28:46.064Z,29.30
2018-08-17T13:31:50.357Z,29.20
2018-08-17T13:34:54.621Z,29.00
2018-08-17T13:37:58.793Z,29.20
2018-08-17T13:41:03.121Z,29.00
2018-08-17T13:44:09.808Z,29.00
2018-08-17T13:47:14.047Z,29.10
2018-08-17T13:50:18.273Z,29.20
2018-08-17T13:53:22.589Z,28.90
2018-08-17T13:56:26.808Z,29.00
2018-08-17T13:59:31.089Z,29.40
2018-08-17T14:02:35.524Z,29.10
2018-08-17T14:05:39.773Z,28.70
2018-08-17T14:08:43.941Z,28.90
2018-08-17T14:11:48.249Z,29.10
2018-08-17T14:14:52.505Z,29.30
2018-08-17T14:17:56.786Z,29.30
2018-08-17T14:21:01.052Z,29.50
2018-08-17T14:24:05.458Z,29.40
2018-08-17T14:27:10.018Z,29.50
2018-08-17T14:30:16.839Z,29.50
2018-08-17T14:33:21.838Z,29.30
2018-08-17T14:36:26.041Z,29.30
2018-08-17T14:39:30.372Z,29.30
2018-08-17T14:42:34.735Z,29.30
2018-08-17T14:45:39.531Z,29.40
2018-08-17T14:48:43.740Z,29.40
2018-08-17T14:51:48.508Z,29.40
2018-08-17T14:54:52.804Z,29.40
2018-08-17T14:57:57.009Z,29.40
2018-08-17T15:01:01.339Z,29.40
2018-08-17T15:04:05.960Z,29.30
2018-08-17T15:07:10.081Z,29.40
2018-08-17T15:10:15.049Z,29.30
2018-08-17T15:13:19.210Z,29.40
2018-08-17T15:16:23.446Z,29.20
2018-08-17T15:19:27.782Z,28.90
2018-08-17T15:22:32.165Z,28.90
2018-08-17T15:25:37.341Z,28.90
2018-08-17T15:28:41.795Z,28.80
2018-08-17T15:31:45.991Z,28.70
2018-08-17T15:34:50.248Z,28.70
2018-08-17T15:37:54.613Z,28.80
2018-08-17T15:40:58.952Z,28.90
2018-08-17T15:44:03.775Z,28.90
2018-08-17T15:47:08.084Z,28.90
2018-08-17T15:50:14.641Z,28.80
2018-08-17T15:53:19.340Z,28.80
2018-08-17T15:56:23.779Z,28.70
2018-08-17T15:59:28.113Z,28.60
2018-08-17T16:02:32.397Z,28.50
2018-08-17T16:05:36.789Z,28.40
2018-08-17T16:08:40.971Z,28.30
2018-08-17T16:11:46.015Z,28.30
2018-08-17T16:14:50.262Z,28.10
2018-08-17T16:17:54.835Z,28.10
2018-08-17T16:20:59.041Z,28.00
2018-08-17T16:24:04.879Z,28.00
2018-08-17T16:27:09.277Z,27.80
2018-08-17T16:30:14.941Z,27.70
2018-08-17T16:33:19.203Z,27.70
2018-08-17T16:36:23.519Z,27.70
2018-08-17T16:39:27.896Z,27.70
2018-08-17T16:42:34.967Z,27.50
2018-08-17T16:45:39.897Z,27.50
2018-08-17T16:48:44.388Z,27.40
2018-08-17T16:51:48.540Z,27.20
2018-08-17T16:54:53.493Z,27.10
2018-08-17T16:57:57.746Z,27.10
2018-08-17T17:01:02.089Z,27.10
2018-08-17T17:04:06.638Z,27.00
2018-08-17T17:07:10.916Z,27.00
2018-08-17T17:10:15.598Z,27.00
2018-08-17T17:13:20.092Z,27.00
2018-08-17T17:16:32.203Z,26.90
2018-08-17T17:19:36.850Z,26.90
2018-08-17T17:22:41.308Z,26.90
2018-08-17T17:25:46.302Z,26.90
2018-08-17T17:28:50.705Z,27.00
2018-08-17T17:31:55.412Z,26.90
2018-08-17T17:34:59.669Z,26.90
2018-08-17T17:38:04.250Z,26.80
2018-08-17T17:41:08.585Z,26.80
2018-08-17T17:44:13.150Z,26.70
2018-08-17T17:47:17.458Z,26.60
2018-08-17T17:50:21.590Z,26.50
2018-08-17T17:53:25.831Z,26.40
2018-08-17T17:56:30.791Z,26.20
2018-08-17T17:59:37.816Z,25.80
2018-08-17T18:02:42.216Z,25.50
2018-08-17T18:05:46.429Z,25.20
2018-08-17T18:08:50.624Z,25.10
2018-08-17T18:11:55.655Z,25.10
2018-08-17T18:15:00.088Z,25.00
2018-08-17T18:18:04.530Z,24.90
2018-08-17T18:21:08.869Z,24.80
2018-08-17T18:24:13.118Z,24.60
2018-08-17T18:27:18.204Z,24.40
2018-08-17T18:30:22.588Z,24.30
2018-08-17T18:33:27.193Z,24.20
2018-08-17T18:36:31.523Z,24.10
2018-08-17T18:39:35.944Z,23.90
2018-08-17T18:42:40.412Z,23.80
2018-08-17T18:45:44.960Z,23.60
2018-08-17T18:48:49.755Z,23.60
2018-08-17T18:51:54.075Z,23.40
2018-08-17T18:54:58.365Z,23.30
2018-08-17T18:58:02.765Z,23.20
2018-08-17T19:01:07.148Z,23.00
2018-08-17T19:04:11.343Z,22.90
2018-08-17T19:07:15.494Z,22.80
2018-08-17T19:10:19.807Z,22.70
2018-08-17T19:13:24.993Z,22.70
2018-08-17T19:16:29.758Z,22.60
2018-08-17T19:19:34.582Z,22.50
2018-08-17T19:22:41.801Z,22.40
2018-08-17T19:25:47.161Z,22.40
2018-08-17T19:28:52.376Z,22.20
2018-08-17T19:32:00.593Z,22.20
2018-08-17T19:35:04.976Z,22.10
2018-08-17T19:38:09.284Z,22.00
2018-08-17T19:41:13.408Z,22.00
2018-08-17T19:44:18.062Z,22.00
2018-08-17T19:47:22.331Z,21.90
2018-08-17T19:50:27.089Z,21.90
2018-08-17T19:53:31.806Z,21.90
2018-08-17T19:56:36.126Z,21.90
2018-08-17T19:59:40.324Z,21.90
2018-08-17T20:02:44.720Z,21.90
2018-08-17T20:05:48.845Z,21.90
2018-08-17T20:08:53.103Z,21.80
2018-08-17T20:11:57.673Z,21.60
2018-08-17T20:15:02.093Z,21.60
2018-08-17T20:18:06.620Z,21.40
2018-08-17T20:21:10.786Z,21.40
2018-08-17T20:24:15.233Z,21.40
2018-08-17T20:27:20.488Z,21.40
2018-08-17T20:30:25.609Z,21.30
2018-08-17T20:33:29.859Z,21.20
2018-08-17T20:36:34.254Z,21.20
2018-08-17T20:39:40.482Z,21.20
2018-08-17T20:42:45.169Z,21.10
2018-08-17T20:45:49.365Z,21.10
2018-08-17T20:48:53.525Z,21.00
2018-08-17T20:52:08.143Z,20.90
2018-08-17T20:55:12.831Z,20.80
2018-08-17T20:58:17.606Z,20.70
2018-08-17T21:01:22.411Z,20.70
2018-08-17T21:04:26.626Z,20.70
2018-08-17T21:07:30.886Z,20.70
2018-08-17T21:10:35.133Z,20.70
2018-08-17T21:13:39.492Z,20.60
2018-08-17T21:16:44.756Z,20.50
2018-08-17T21:19:49.075Z,20.50
2018-08-17T21:22:53.405Z,20.50
2018-08-17T21:25:58.247Z,20.40
2018-08-17T21:29:03.820Z,20.30
2018-08-17T21:32:08.164Z,20.30
2018-08-17T21:35:12.808Z,20.30
2018-08-17T21:38:17.984Z,20.20
2018-08-17T21:41:22.340Z,20.10
2018-08-17T21:44:26.540Z,20.00
2018-08-17T21:47:30.980Z,20.00
2018-08-17T21:50:35.072Z,20.10
2018-08-17T21:53:39.287Z,20.00
2018-08-17T21:56:43.800Z,19.90
2018-08-17T21:59:49.723Z,19.80
2018-08-17T22:02:53.877Z,19.80
2018-08-17T22:05:58.399Z,19.80
2018-08-17T22:09:03.138Z,19.70
2018-08-17T22:12:08.333Z,19.60
2018-08-17T22:15:12.825Z,19.50
2018-08-17T22:18:17.051Z,19.40
2018-08-17T22:21:21.588Z,19.30
2018-08-17T22:24:26.885Z,19.20
2018-08-17T22:27:31.061Z,19.30
2018-08-17T22:30:42.618Z,19.20
2018-08-17T22:33:46.803Z,19.10
2018-08-17T22:36:51.550Z,19.10
2018-08-17T22:39:56.683Z,19.10
2018-08-17T22:43:00.984Z,19.10
2018-08-17T22:46:05.176Z,19.00
2018-08-17T22:49:09.548Z,18.90
2018-08-17T22:52:13.712Z,18.90
2018-08-17T22:55:18.048Z,18.70
2018-08-17T22:58:22.205Z,18.60
2018-08-17T23:01:26.772Z,18.60
2018-08-17T23:04:31.044Z,18.50
2018-08-17T23:07:35.360Z,18.60
2018-08-17T23:10:39.890Z,18.50
2018-08-17T23:13:44.037Z,18.50
2018-08-17T23:16:48.211Z,18.50
2018-08-17T23:19:52.437Z,18.50
2018-08-17T23:22:58.088Z,18.60
2018-08-17T23:26:02.660Z,18.60
2018-08-17T23:29:07.811Z,18.70
2018-08-17T23:32:12.222Z,18.80
2018-08-17T23:35:16.939Z,18.90
2018-08-17T23:38:21.081Z,18.80
2018-08-17T23:41:25.770Z,18.70
2018-08-17T23:44:29.983Z,18.80
2018-08-17T23:47:34.961Z,18.80
2018-08-17T23:50:39.341Z,18.90
2018-08-17T23:53:43.515Z,18.90
2018-08-17T23:56:47.825Z,19.00
2018-08-17T23:59:53.111Z,18.90
